createdAt,value
2023-09-05T00:00:27.808Z,15.30
2023-09-05T00:02:59.522Z,15.29
2023-09-05T00:05:33.834Z,15.31
2023-09-05T00:08:05.511Z,15.25
2023-09-05T00:10:37.216Z,15.10
2023-09-05T00:13:12.330Z,15.06
2023-09-05T00:15:43.949Z,15.07
2023-09-05T00:18:15.485Z,15.07
2023-09-05T00:20:47.821Z,15.07
2023-09-05T00:23:19.414Z,15.08
2023-09-05T00:25:51.374Z,15.10
2023-09-05T00:28:23.744Z,15.09
2023-09-05T00:30:55.367Z,15.08
2023-09-05T00:33:27.727Z,15.09
2023-09-05T00:35:59.628Z,15.08
2023-09-05T00:38:31.307Z,15.06
2023-09-05T00:41:03.448Z,14.97
2023-09-05T00:43:34.997Z,14.84
2023-09-05T00:46:07.599Z,14.80
2023-09-05T00:48:41.990Z,14.83
2023-09-05T00:51:14.008Z,14.85
2023-09-05T00:53:45.633Z,14.90
2023-09-05T00:56:17.207Z,14.95
2023-09-05T00:58:48.785Z,15.02
2023-09-05T01:01:20.434Z,15.08
2023-09-05T01:03:57.350Z,15.13
2023-09-05T01:07:02.498Z,15.16
2023-09-05T01:09:43.032Z,15.18
2023-09-05T01:12:14.790Z,15.08
2023-09-05T01:14:46.353Z,14.98
2023-09-05T01:17:17.958Z,14.90
2023-09-05T01:19:54.698Z,14.82
2023-09-05T01:22:35.527Z,14.76
2023-09-05T01:25:09.462Z,14.75
2023-09-05T01:27:41.028Z,14.73
2023-09-05T01:30:12.815Z,14.73
2023-09-05T01:32:45.212Z,14.78
2023-09-05T01:35:16.976Z,14.85
2023-09-05T01:37:48.513Z,14.91
2023-09-05T01:40:20.536Z,14.91
2023-09-05T01:42:52.061Z,14.80
2023-09-05T01:45:23.673Z,14.65
2023-09-05T01:47:55.357Z,14.57
2023-09-05T01:50:32.639Z,14.56
2023-09-05T01:53:04.413Z,14.56
2023-09-05T01:55:35.921Z,14.52
2023-09-05T01:58:07.514Z,14.52
2023-09-05T02:00:39.177Z,14.55
2023-09-05T02:03:11.807Z,14.60
2023-09-05T02:05:43.379Z,14.65
2023-09-05T02:08:14.936Z,14.71
2023-09-05T02:10:46.620Z,14.64
2023-09-05T02:13:18.448Z,14.58
2023-09-05T02:15:49.980Z,14.48
2023-09-05T02:18:21.611Z,14.42
2023-09-05T02:20:58.878Z,14.43
2023-09-05T02:23:30.485Z,14.44
2023-09-05T02:26:03.202Z,14.42
2023-09-05T02:28:35.348Z,14.40
2023-09-05T02:31:07.783Z,14.33
2023-09-05T02:33:39.664Z,14.29
2023-09-05T02:36:19.709Z,14.28
2023-09-05T02:38:51.624Z,14.29
2023-09-05T02:41:23.351Z,14.29
2023-09-05T02:43:54.937Z,14.34
2023-09-05T02:46:26.989Z,14.36
2023-09-05T02:48:58.567Z,14.36
2023-09-05T02:51:30.105Z,14.36
2023-09-05T02:54:01.770Z,14.38
2023-09-05T02:56:33.880Z,14.35
2023-09-05T02:59:05.448Z,14.27
2023-09-05T03:01:37.584Z,14.21
2023-09-05T03:04:09.252Z,14.17
2023-09-05T03:06:40.960Z,14.09
2023-09-05T03:09:12.593Z,14.04
2023-09-05T03:11:44.159Z,14.08
2023-09-05T03:14:15.713Z,14.12
2023-09-05T03:16:48.500Z,14.17
2023-09-05T03:19:23.347Z,14.20
2023-09-05T03:21:55.288Z,14.24
2023-09-05T03:24:27.526Z,14.27
2023-09-05T03:26:59.053Z,14.30
2023-09-05T03:29:31.088Z,14.34
2023-09-05T03:32:03.194Z,14.38
2023-09-05T03:34:35.827Z,14.42
2023-09-05T03:37:07.410Z,14.45
2023-09-05T03:39:38.937Z,14.48
2023-09-05T03:42:13.582Z,14.53
2023-09-05T03:44:45.197Z,14.58
2023-09-05T03:47:16.790Z,14.61
2023-09-05T03:49:48.397Z,14.64
2023-09-05T03:52:20.259Z,14.66
2023-09-05T03:54:51.766Z,14.66
2023-09-05T03:57:23.346Z,14.68
2023-09-05T03:59:54.938Z,14.67
2023-09-05T04:02:26.542Z,14.67
2023-09-05T04:04:58.103Z,14.69
2023-09-05T04:07:29.706Z,14.69
2023-09-05T04:10:01.288Z,14.69
2023-09-05T04:12:32.924Z,14.69
2023-09-05T04:15:04.916Z,14.71
2023-09-05T04:17:36.772Z,14.70
2023-09-05T04:20:08.990Z,14.69
2023-09-05T04:22:41.212Z,14.70
2023-09-05T04:25:12.774Z,14.73
2023-09-05T04:27:44.323Z,14.75
2023-09-05T04:30:16.034Z,14.77
2023-09-05T04:32:47.597Z,14.80
2023-09-05T04:35:19.232Z,14.83
2023-09-05T04:37:52.275Z,14.86
2023-09-05T04:40:23.916Z,14.90
2023-09-05T04:42:55.471Z,14.94
2023-09-05T04:45:27.153Z,14.96
2023-09-05T04:47:59.019Z,14.98
2023-09-05T04:50:30.673Z,15.01
2023-09-05T04:53:02.586Z,15.08
2023-09-05T04:55:34.178Z,15.15
2023-09-05T04:58:08.607Z,15.24
2023-09-05T05:00:42.153Z,15.33
2023-09-05T05:03:13.753Z,15.41
2023-09-05T05:05:58.348Z,15.48
2023-09-05T05:08:30.371Z,15.56
2023-09-05T05:11:06.629Z,15.61
2023-09-05T05:13:38.445Z,15.68
2023-09-05T05:16:10.246Z,15.74
2023-09-05T05:18:42.467Z,15.81
2023-09-05T05:21:14.203Z,15.87
2023-09-05T05:23:45.970Z,15.94
2023-09-05T05:26:17.576Z,15.99
2023-09-05T05:28:49.259Z,16.08
2023-09-05T05:31:21.032Z,16.15
2023-09-05T05:33:52.896Z,16.21
2023-09-05T05:36:25.015Z,16.27
2023-09-05T05:38:57.884Z,16.33
2023-09-05T05:41:30.124Z,16.40
2023-09-05T05:44:01.753Z,16.49
2023-09-05T05:46:33.419Z,16.58
2023-09-05T05:49:05.074Z,16.66
2023-09-05T05:51:38.702Z,16.74
2023-09-05T05:54:11.100Z,16.77
2023-09-05T05:56:43.076Z,16.87
2023-09-05T05:59:14.800Z,16.91
2023-09-05T06:01:46.581Z,17.01
2023-09-05T06:04:18.278Z,17.09
2023-09-05T06:06:50.609Z,17.17
2023-09-05T06:09:22.646Z,17.24
2023-09-05T06:11:54.488Z,17.33
2023-09-05T06:14:26.231Z,17.42
2023-09-05T06:16:58.292Z,17.54
2023-09-05T06:19:30.050Z,17.63
2023-09-05T06:22:01.821Z,17.78
2023-09-05T06:24:33.590Z,17.92
2023-09-05T06:27:05.747Z,18.06
2023-09-05T06:29:37.481Z,18.25
2023-09-05T06:32:09.330Z,18.40
2023-09-05T06:34:41.661Z,18.58
2023-09-05T06:37:13.396Z,18.78
2023-09-05T06:39:45.257Z,18.98
2023-09-05T06:42:17.998Z,19.17
2023-09-05T06:44:49.739Z,19.33
2023-09-05T06:47:21.495Z,19.53
2023-09-05T06:49:53.257Z,19.75
2023-09-05T06:52:25.085Z,20.02
2023-09-05T06:54:56.829Z,20.30
2023-09-05T06:57:28.515Z,20.51
2023-09-05T07:00:01.962Z,20.72
2023-09-05T07:02:33.767Z,20.84
2023-09-05T07:05:06.529Z,21.08
2023-09-05T07:07:38.880Z,21.26
2023-09-05T07:10:10.767Z,21.55
2023-09-05T07:12:42.492Z,21.72
2023-09-05T07:15:14.159Z,22.02
2023-09-05T07:17:45.807Z,22.56
2023-09-05T07:20:17.571Z,22.89
2023-09-05T07:22:49.407Z,23.11
2023-09-05T07:25:21.068Z,23.17
2023-09-05T07:27:52.713Z,23.56
2023-09-05T07:30:25.806Z,23.99
2023-09-05T07:32:59.492Z,24.38
2023-09-05T07:35:31.365Z,24.62
2023-09-05T07:38:03.289Z,24.42
2023-09-05T07:40:34.974Z,24.00
2023-09-05T07:43:06.728Z,23.71
2023-09-05T07:45:38.404Z,23.45
2023-09-05T07:48:10.223Z,23.86
2023-09-05T07:50:41.981Z,24.52
2023-09-05T07:53:14.452Z,24.97
2023-09-05T07:55:46.272Z,25.12
2023-09-05T07:58:18.939Z,25.19
2023-09-05T08:00:51.135Z,25.44
2023-09-05T08:03:27.314Z,25.79
2023-09-05T08:05:59.028Z,26.27
2023-09-05T08:08:31.241Z,26.53
2023-09-05T08:11:02.999Z,26.79
2023-09-05T08:13:34.689Z,26.61
2023-09-05T08:16:06.989Z,26.72
2023-09-05T08:18:38.825Z,27.01
2023-09-05T08:21:10.524Z,27.25
2023-09-05T08:23:42.180Z,27.22
2023-09-05T08:26:13.797Z,26.81
2023-09-05T08:28:47.148Z,26.53
2023-09-05T08:31:19.396Z,27.10
2023-09-05T08:33:51.103Z,27.81
2023-09-05T08:36:23.109Z,28.64
2023-09-05T08:38:54.711Z,28.76
2023-09-05T08:41:26.570Z,28.96
2023-09-05T08:43:58.707Z,29.26
2023-09-05T08:46:31.393Z,28.89
2023-09-05T08:49:03.258Z,29.07
2023-09-05T08:51:40.250Z,29.99
2023-09-05T08:54:14.198Z,30.80
2023-09-05T08:56:46.168Z,31.34
2023-09-05T08:59:18.477Z,31.67
2023-09-05T09:01:50.316Z,31.72
2023-09-05T09:04:22.849Z,31.84
2023-09-05T09:06:58.401Z,32.13
2023-09-05T09:09:39.633Z,32.30
2023-09-05T09:12:11.569Z,32.54
2023-09-05T09:14:44.669Z,32.82
2023-09-05T09:17:16.715Z,33.21
2023-09-05T09:19:48.471Z,33.37
2023-09-05T09:22:26.252Z,33.78
2023-09-05T09:24:57.941Z,34.25
2023-09-05T09:27:32.070Z,34.68
2023-09-05T09:30:07.978Z,34.72
2023-09-05T09:32:41.137Z,34.64
2023-09-05T09:35:13.130Z,34.70
2023-09-05T09:37:47.990Z,34.82
2023-09-05T09:40:19.618Z,34.75
2023-09-05T09:42:51.578Z,34.85
2023-09-05T09:45:26.675Z,34.54
2023-09-05T09:48:01.892Z,34.22
2023-09-05T09:50:33.665Z,34.34
2023-09-05T09:53:05.850Z,34.17
2023-09-05T09:55:40.790Z,33.87
2023-09-05T09:58:19.595Z,33.87
2023-09-05T10:00:52.309Z,33.61
2023-09-05T10:03:26.608Z,33.69
2023-09-05T10:06:02.196Z,33.96
2023-09-05T10:11:07.237Z,33.84
2023-09-05T10:13:41.539Z,33.81
2023-09-05T10:16:17.866Z,33.87
2023-09-05T10:18:51.595Z,33.71
2023-09-05T10:21:26.678Z,33.55
2023-09-05T10:23:59.464Z,33.48
2023-09-05T10:26:31.807Z,33.42
2023-09-05T10:29:44.972Z,33.45
2023-09-05T10:32:21.101Z,33.29
2023-09-05T10:34:53.089Z,33.08
2023-09-05T10:37:49.949Z,32.85
2023-09-05T10:40:37.003Z,32.92
2023-09-05T10:43:16.611Z,33.11
2023-09-05T10:45:56.823Z,33.32
2023-09-05T10:48:46.918Z,33.30
2023-09-05T10:51:18.682Z,33.43
2023-09-05T10:53:50.485Z,33.48
2023-09-05T10:56:41.839Z,33.36
2023-09-05T10:59:29.267Z,33.09
2023-09-05T11:02:06.354Z,33.14
2023-09-05T11:04:39.168Z,33.11
2023-09-05T11:07:13.043Z,33.05
2023-09-05T11:09:50.200Z,33.00
2023-09-05T11:12:22.785Z,32.67
2023-09-05T11:14:55.021Z,32.78
2023-09-05T11:17:28.526Z,32.85
2023-09-05T11:20:00.354Z,32.81
2023-09-05T11:22:32.178Z,32.70
2023-09-05T11:25:08.810Z,32.49
2023-09-05T11:27:41.783Z,32.45
2023-09-05T11:30:17.462Z,32.43
2023-09-05T11:32:51.182Z,32.25
2023-09-05T11:35:22.926Z,32.14
2023-09-05T11:38:00.433Z,32.19
2023-09-05T11:40:32.125Z,31.99
2023-09-05T11:43:10.897Z,31.85
2023-09-05T11:45:44.921Z,31.89
2023-09-05T11:48:18.462Z,31.94
2023-09-05T11:50:51.053Z,31.93
2023-09-05T11:53:23.741Z,31.90
2023-09-05T11:55:55.918Z,31.80
2023-09-05T11:58:28.145Z,31.53
2023-09-05T12:01:00.052Z,31.58
2023-09-05T12:03:37.716Z,31.38
2023-09-05T12:06:10.326Z,31.12
2023-09-05T12:08:42.221Z,30.92
2023-09-05T12:11:25.513Z,30.98
2023-09-05T12:13:58.617Z,31.18
2023-09-05T12:16:30.433Z,31.28
2023-09-05T12:19:03.651Z,31.22
2023-09-05T12:21:46.958Z,31.22
2023-09-05T12:24:25.776Z,31.33
2023-09-05T12:27:01.128Z,31.33
2023-09-05T12:29:41.703Z,31.37
2023-09-05T12:32:13.556Z,31.44
2023-09-05T12:34:45.213Z,31.53
2023-09-05T12:37:16.786Z,31.39
2023-09-05T12:39:48.988Z,31.28
2023-09-05T12:42:20.582Z,31.28
2023-09-05T12:44:53.830Z,31.28
2023-09-05T12:47:25.515Z,31.07
2023-09-05T12:50:10.451Z,30.88
2023-09-05T12:52:45.155Z,30.72
2023-09-05T12:55:17.035Z,30.69
2023-09-05T12:57:48.790Z,30.62
2023-09-05T13:00:21.231Z,30.55
2023-09-05T13:02:52.942Z,30.52
2023-09-05T13:05:27.929Z,30.39
2023-09-05T13:08:00.560Z,30.36
2023-09-05T13:10:32.238Z,30.33
2023-09-05T13:13:05.940Z,30.20
2023-09-05T13:15:39.270Z,30.09
2023-09-05T13:18:11.964Z,30.05
2023-09-05T13:20:44.650Z,30.03
2023-09-05T13:23:17.239Z,29.66
2023-09-05T13:25:49.039Z,29.37
2023-09-05T13:28:20.681Z,29.24
2023-09-05T13:30:52.478Z,29.22
2023-09-05T13:33:24.668Z,29.21
2023-09-05T13:35:56.346Z,29.32
2023-09-05T13:38:28.388Z,29.27
2023-09-05T13:41:00.396Z,29.29
2023-09-05T13:43:32.576Z,29.18
2023-09-05T13:46:04.272Z,29.14
2023-09-05T13:48:36.069Z,29.00
2023-09-05T13:51:08.328Z,28.80
2023-09-05T13:53:40.034Z,28.71
2023-09-05T13:56:11.853Z,28.74
2023-09-05T13:58:44.429Z,28.71
2023-09-05T14:01:16.736Z,28.64
2023-09-05T14:03:49.611Z,28.64
2023-09-05T14:06:21.746Z,28.55
2023-09-05T14:08:53.478Z,28.38
2023-09-05T14:11:25.265Z,28.27
2023-09-05T14:13:56.866Z,28.21
2023-09-05T14:16:28.489Z,28.14
2023-09-05T14:19:00.359Z,27.95
2023-09-05T14:21:32.067Z,27.91
2023-09-05T14:24:03.937Z,27.88
2023-09-05T14:26:35.675Z,27.86
2023-09-05T14:29:08.880Z,27.83
2023-09-05T14:31:42.085Z,27.79
2023-09-05T14:34:13.808Z,27.77
2023-09-05T14:36:45.500Z,27.72
2023-09-05T14:39:18.141Z,27.71
2023-09-05T14:41:49.826Z,27.63
2023-09-05T14:44:23.758Z,27.55
2023-09-05T14:46:55.534Z,27.46
2023-09-05T14:49:27.471Z,27.39
2023-09-05T14:51:59.019Z,27.34
2023-09-05T14:54:32.965Z,27.30
2023-09-05T14:57:07.743Z,27.32
2023-09-05T14:59:39.514Z,27.31
2023-09-05T15:02:14.137Z,27.25
2023-09-05T15:04:48.094Z,27.23
2023-09-05T15:07:35.465Z,27.23
2023-09-05T15:10:28.293Z,27.15
2023-09-05T15:13:09.130Z,27.07
2023-09-05T15:16:19.434Z,27.01
2023-09-05T15:18:58.754Z,26.97
2023-09-05T15:21:50.678Z,26.92
2023-09-05T15:24:43.821Z,26.83
2023-09-05T15:27:36.645Z,26.83
2023-09-05T15:30:32.518Z,26.82
2023-09-05T15:33:07.022Z,26.82
2023-09-05T15:35:57.523Z,26.81
2023-09-05T15:39:17.188Z,26.81
2023-09-05T15:41:57.747Z,26.75
2023-09-05T15:44:51.451Z,26.70
2023-09-05T15:47:27.802Z,26.76
2023-09-05T15:50:21.308Z,26.77
2023-09-05T15:52:53.865Z,26.78
2023-09-05T15:55:32.175Z,26.76
2023-09-05T15:58:40.478Z,26.76
2023-09-05T16:01:14.487Z,26.73
2023-09-05T16:03:46.313Z,26.57
2023-09-05T16:06:20.126Z,26.43
2023-09-05T16:09:04.358Z,26.37
2023-09-05T16:11:53.674Z,26.29
2023-09-05T16:14:25.337Z,26.18
2023-09-05T16:17:09.454Z,26.05
2023-09-05T16:19:41.139Z,25.91
2023-09-05T16:22:16.747Z,25.80
2023-09-05T16:25:02.209Z,25.68
2023-09-05T16:27:49.029Z,25.57
2023-09-05T16:30:49.522Z,25.46
2023-09-05T16:33:25.384Z,25.34
2023-09-05T16:36:23.483Z,25.26
2023-09-05T16:38:57.186Z,25.15
2023-09-05T16:41:36.048Z,25.10
2023-09-05T16:44:09.720Z,25.06
2023-09-05T16:46:43.253Z,25.02
2023-09-05T16:49:36.835Z,24.95
2023-09-05T16:52:23.451Z,24.88
2023-09-05T16:55:04.104Z,24.79
2023-09-05T16:58:01.553Z,24.74
2023-09-05T17:00:53.562Z,24.64
2023-09-05T17:03:34.224Z,24.59
2023-09-05T17:06:08.114Z,24.53
2023-09-05T17:08:40.665Z,24.48
2023-09-05T17:11:28.489Z,24.39
2023-09-05T17:14:27.376Z,24.34
2023-09-05T17:17:06.877Z,24.22
2023-09-05T17:19:50.634Z,24.06
2023-09-05T17:22:22.739Z,23.97
2023-09-05T17:25:16.094Z,23.84
2023-09-05T17:27:57.856Z,23.74
2023-09-05T17:30:36.996Z,23.61
2023-09-05T17:33:18.118Z,23.51
2023-09-05T17:36:13.336Z,23.35
2023-09-05T17:38:48.403Z,23.21
2023-09-05T17:41:23.308Z,23.13
2023-09-05T17:43:57.491Z,23.07
2023-09-05T17:46:46.474Z,22.97
2023-09-05T17:49:20.165Z,22.84
2023-09-05T17:51:52.257Z,22.77
2023-09-05T17:54:44.892Z,22.69
2023-09-05T17:57:16.876Z,22.60
2023-09-05T18:00:15.462Z,22.51
2023-09-05T18:03:11.740Z,22.40
2023-09-05T18:05:51.461Z,22.34
2023-09-05T18:08:44.591Z,22.29
2023-09-05T18:11:27.903Z,22.28
2023-09-05T18:14:21.876Z,22.20
2023-09-05T18:17:13.780Z,22.08
2023-09-05T18:20:02.419Z,21.95
2023-09-05T18:22:44.987Z,21.88
2023-09-05T18:25:37.628Z,21.84
2023-09-05T18:28:10.122Z,21.72
2023-09-05T18:31:20.430Z,21.64
2023-09-05T18:34:30.623Z,21.57
2023-09-05T18:37:06.585Z,21.49
2023-09-05T18:39:38.527Z,21.39
2023-09-05T18:42:40.197Z,21.32
2023-09-05T18:45:41.468Z,21.29
2023-09-05T18:48:13.950Z,21.26
2023-09-05T18:51:23.746Z,21.22
2023-09-05T18:54:37.421Z,21.21
2023-09-05T18:57:32.514Z,21.12
2023-09-05T19:00:23.815Z,21.11
2023-09-05T19:02:55.795Z,21.09
2023-09-05T19:05:34.724Z,21.14
2023-09-05T19:08:07.145Z,21.05
2023-09-05T19:10:39.518Z,20.95
2023-09-05T19:13:12.568Z,20.85
2023-09-05T19:15:47.045Z,20.84
2023-09-05T19:18:47.164Z,20.81
2023-09-05T19:21:45.885Z,20.81
2023-09-05T19:24:59.110Z,20.85
2023-09-05T19:27:51.723Z,20.79
2023-09-05T19:30:24.183Z,20.77
2023-09-05T19:33:04.631Z,20.72
2023-09-05T19:35:38.946Z,20.65
2023-09-05T19:38:13.867Z,20.64
2023-09-05T19:40:46.479Z,20.74
2023-09-05T19:43:22.765Z,20.71
2023-09-05T19:46:06.199Z,20.65
2023-09-05T19:48:43.425Z,20.62
2023-09-05T19:51:35.296Z,20.68
2023-09-05T19:54:07.468Z,20.68
2023-09-05T19:57:05.160Z,20.74
2023-09-05T19:59:50.481Z,20.73
2023-09-05T20:02:37.824Z,20.69
2023-09-05T20:05:50.143Z,20.66
2023-09-05T20:10:59.897Z,20.62
2023-09-05T20:13:31.583Z,20.55
2023-09-05T20:16:03.653Z,20.50
2023-09-05T20:18:35.612Z,20.53
2023-09-05T20:21:10.716Z,20.47
2023-09-05T20:23:42.404Z,20.45
2023-09-05T20:26:14.270Z,20.46
2023-09-05T20:28:45.894Z,20.48
2023-09-05T20:31:17.603Z,20.48
2023-09-05T20:33:49.404Z,20.46
2023-09-05T20:36:21.421Z,20.46
2023-09-05T20:38:53.097Z,20.44
2023-09-05T20:41:25.367Z,20.42
2023-09-05T20:43:57.059Z,20.39
2023-09-05T20:46:28.815Z,20.35
2023-09-05T20:49:00.714Z,20.31
2023-09-05T20:51:33.217Z,20.27
2023-09-05T20:54:06.230Z,20.24
2023-09-05T20:56:41.952Z,20.24
2023-09-05T20:59:14.469Z,20.24
2023-09-05T21:01:46.818Z,20.25
2023-09-05T21:04:18.841Z,20.21
2023-09-05T21:06:50.691Z,20.16
2023-09-05T21:09:23.608Z,20.16
2023-09-05T21:11:55.320Z,20.11
2023-09-05T21:14:26.917Z,20.06
2023-09-05T21:16:58.526Z,20.05
2023-09-05T21:19:30.138Z,20.01
2023-09-05T21:22:02.118Z,20.01
2023-09-05T21:24:36.932Z,19.98
2023-09-05T21:27:08.604Z,19.91
2023-09-05T21:29:40.181Z,19.84
2023-09-05T21:32:11.861Z,19.78
2023-09-05T21:34:45.672Z,19.77
2023-09-05T21:37:17.182Z,19.78
2023-09-05T21:39:48.852Z,19.77
2023-09-05T21:42:22.207Z,19.72
2023-09-05T21:44:55.779Z,19.71
2023-09-05T21:47:27.680Z,19.69
2023-09-05T21:49:59.283Z,19.62
2023-09-05T21:52:31.050Z,19.58
2023-09-05T21:55:02.765Z,19.59
2023-09-05T21:57:35.294Z,19.61
2023-09-05T22:00:07.850Z,19.58
2023-09-05T22:02:40.305Z,19.58
2023-09-05T22:05:13.111Z,19.56
2023-09-05T22:07:46.134Z,19.52
2023-09-05T22:10:17.742Z,19.51
2023-09-05T22:12:49.401Z,19.51
2023-09-05T22:15:21.099Z,19.51
2023-09-05T22:17:54.084Z,19.48
2023-09-05T22:20:26.828Z,19.47
2023-09-05T22:22:58.459Z,19.46
2023-09-05T22:25:30.497Z,19.42
2023-09-05T22:28:04.133Z,19.36
2023-09-05T22:30:35.955Z,19.36
2023-09-05T22:33:09.027Z,19.34
2023-09-05T22:35:41.162Z,19.33
2023-09-05T22:38:12.775Z,19.31
2023-09-05T22:40:44.357Z,19.28
2023-09-05T22:43:16.649Z,19.25
2023-09-05T22:45:48.345Z,19.24
2023-09-05T22:48:20.889Z,19.22
2023-09-05T22:50:52.545Z,19.21
2023-09-05T22:53:28.177Z,19.21
2023-09-05T22:56:12.976Z,19.19
2023-09-05T22:58:52.864Z,19.15
2023-09-05T23:01:24.535Z,19.14
2023-09-05T23:03:56.343Z,19.13
2023-09-05T23:06:28.116Z,19.13
2023-09-05T23:09:00.059Z,19.14
2023-09-05T23:11:31.767Z,19.11
2023-09-05T23:14:03.560Z,19.05
2023-09-05T23:16:36.437Z,19.04
2023-09-05T23:19:09.561Z,19.01
2023-09-05T23:21:45.061Z,18.97
2023-09-05T23:24:16.891Z,18.97
2023-09-05T23:26:48.536Z,18.94
2023-09-05T23:29:20.128Z,18.90
2023-09-05T23:31:54.049Z,18.86
2023-09-05T23:34:28.585Z,18.86
2023-09-05T23:37:00.311Z,18.85
2023-09-05T23:39:33.384Z,18.82
2023-09-05T23:42:08.601Z,18.82
2023-09-05T23:44:42.015Z,18.79
2023-09-05T23:47:13.678Z,18.77
2023-09-05T23:49:46.701Z,18.73
2023-09-05T23:52:18.992Z,18.68
2023-09-05T23:54:50.687Z,18.64
2023-09-05T23:57:22.390Z,18.60
2023-09-05T23:59:56.266Z,18.58
